Airfield :
LOGIN :

Register | Disclaimer

   EN    FR    IT 

 










Legend :    VFR   Marginal VFR   IFR   Intensive IFR   Very Intensive IFR
Visi :
Ceiling :
>= 8 km
>= 3000ft
5 to 8 km
1000 to 3000 ft
1500m to 5 km
500 to 1000 ft
800 to 1500m
200 to 500 ft
< 800m
< 200 ft
Symbols :   Thunderstorms  Fog  Heavy snow  Heavy precipitations  Wind > 20 kt
SIGMETs :     Misc.  Thunderstorms  Icing  Turbulence  Mountain Waves  Volcanic Ashes






- Airport Elevation : 284 ft


EGUW - RAF Wattisham

CURRENT METAR :
  • 292350Z AUTO 28009KT 9999 SCT079/// 12/10 Q1007

EXPIRED METARs :
  • 292320Z AUTO 28007KT 9999 OVC079/// 13/10 Q1007
  • 292250Z AUTO 29008KT 9999 OVC080/// 13/10 Q1007
  • 292220Z AUTO 28007KT 9999 OVC081/// 13/10 Q1007
  • 292150Z AUTO 26007KT 9999 OVC084/// 13/10 Q1007
  • 292120Z AUTO 26006KT 9999 OVC084/// 13/10 Q1007
  • 292050Z AUTO 29008KT 9999 OVC085/// 14/10 Q1007
  • 292020Z AUTO 27005KT 9999 SCT069/// BKN087/// 13/11 Q1007
  • 291950Z AUTO 29005KT 9999 FEW069/// OVC084/// 14/10 Q1007

Expired Forecast.



MET'MAP, your aeronautical weather chart ! - Copyright ORBIFLY December 2007 - Disclaimer

ORBIFLY MET'MAP TEAM :

Programming & Development : Alexandra Zaïnal
Original concept : Baudouin d'Aumeries
Technical & hardware support : Manuel Goepfert
Assistance : Marc-Olivier Méhu




SOURCES & CREDITS :

   NOAA